Boston, Massachusetts
Traffic Map
Current Weather Conditions
Boston, Massachusetts
Overcast Light Rain
Overcast
47°
Feels Like: 41°
Wind Chill: 41° Ceiling: 500
Heat Index: 47° Visibility: 2.5mi
Dew Point: 47° Wind: 14mph
Humidity: 100% Direction: 30° (NNE)
Pressure: 30.08in Gusts: 0mph
Raw Report DataKBOS 260254Z 03012KT 2 1/2SM -RA BR BKN005 OVC007 08/08 A3008 RMK AO2 SLP186 P0004 60012 T00830083 58019
Traffic Incident Summary
Active as of:
Severity:
Category:
InformationThere was an issue retrieving the traffic information for this location. Please try a different location or try again shortly.
Advertisements
Track Severe Weather on mobile